Elgin, Ohio
Current Conditions -  °F | °C
As of 8:13 AM on Thursday 27 Nov 2014 (Local Time) from KAXV Reporting Station
Light Snow Light Snow  
Wind Chill: 23°   Ceiling: 2100
Heat Index: 30°   Visibility: 7mi
Dew Point: 28°   Wind: 8mph
Humidity: 93%   Direction: 320°NW
Pressure: 30.18"   Gusts: NA
Location:  40.74°N, 84.48°W
Report Text: KAXV 271313Z AUTO 32007KT 7SM -SN SCT015 BKN021 OVC037 M01/M02 A3018 RMK AO2
Loading
Personal Weather Stations






























Interactive Weather Map New forecast layout! Learn more

10-Day Weather Forecast

Advertisements
Track Severe Weather on mobile